ジョン・F・ケネディ国際空港の過去48時間の天気

ジョン・F・ケネディ国際空港 (New York, Kennedy International Airport)

現在時刻: 9/24 08:02 EDT (9/24 12:02 UTC) 以下の時間は現地時間です。

過去48時間のMETAR気象情報
時間 風向 風速(m/s) 視程 気温(℃) 湿度(%) 気圧(hPa) 天気現象
24 07:51 4 10km以上 22.8 64 1018.6
24 06:51 2 10km以上 20 73 1018.3
24 05:51 北北西 2 10km以上 20.6 70 1017.8
24 04:51 北北東 2 10km以上 18.9 81 1017.7
24 03:51 静穏 0 10km以上 18.3 81 1017.5
24 02:51 北北東 3 10km以上 20 70 1017.3
24 01:51 北北東 2 10km以上 20.6 65 1017.5
24 00:51 北東 2 10km以上 21.7 59 1017.5
23 23:51 3 10km以上 21.1 61 1017.4
23 22:51 3 10km以上 24.4 45 1017.3
23 21:51 4 10km以上 25.6 42 1017.1
23 20:51 3 10km以上 25.6 43 1017
23 19:51 2 10km以上 26.1 39 1016.8
23 18:51 4 10km以上 27.8 33 1016.2
23 17:51 4 10km以上 29.4 30 1016.1
23 16:51 4 10km以上 30.6 30 1015.9
23 15:51 7 10km以上 31.1 33 1015.9
KJFK 241151Z 36007KT 10SM CLR 23/16 A3008 RMK AO2 SLP186 T02280156 10228 20183 53008
KJFK 241051Z 01004KT 10SM CLR 20/15 A3007 RMK AO2 SLP183 T02000150
KJFK 240951Z 34003KT 10SM CLR 21/15 A3006 RMK AO2 SLP178 T02060150
KJFK 240851Z 02003KT 10SM CLR 19/16 A3006 RMK AO2 SLP177 T01890156 53002
KJFK 240751Z 00000KT 10SM CLR 18/15 A3005 RMK AO2 SLP175 T01830150
KJFK 240651Z 02005KT 10SM CLR 20/14 A3004 RMK AO2 SLP173 T02000144
KJFK 240551Z 02004KT 10SM CLR 21/14 A3005 RMK AO2 SLP175 T02060139 10267 20200 51002
KJFK 240451Z 05003KT 10SM CLR 22/13 A3005 RMK AO2 SLP175 T02170133 403110200
KJFK 240351Z 09006KT 10SM CLR 21/13 A3004 RMK AO2 SLP174 T02110133
KJFK 240251Z 35005KT 10SM CLR 24/12 A3004 RMK AO2 SLP173 T02440117 52005
KJFK 240151Z 01007KT 10SM CLR 26/12 A3004 RMK AO2 SLP171 T02560117
KJFK 240051Z 01005KT 10SM CLR 26/12 A3003 RMK AO2 SLP170 T02560122
KJFK 232351Z 35004KT 10SM CLR 26/11 A3003 RMK AO2 SLP168 T02610111 10311 20261 53009
KJFK 232251Z 35007KT 10SM CLR 28/10 A3001 RMK AO2 SLP162 T02780100
KJFK 232151Z 35008KT 10SM FEW085 29/10 A3001 RMK AO2 SLP161 T02940100
KJFK 232051Z 36008KT 10SM FEW095 31/11 A3000 RMK AO2 SLP159 T03060111 55007
KJFK 231951Z 36014KT 10SM FEW095 31/13 A3000 RMK AO2 SLP159 T03110128